地図

経路データ

SID SEASON NUMBER BASIN SUBBASIN NAME ISO_TIME NATURE LAT LON WMO_WIND WMO_PRES WMO_AGENCY TRACK_TYPE DIST2LAND LANDFALL IFLAG USA_AGENCY USA_ATCF_ID USA_LAT USA_LON USA_RECORD USA_STATUS USA_WIND USA_PRES USA_SSHS USA_R34_NE USA_R34_SE USA_R34_SW USA_R34_NW USA_R50_NE USA_R50_SE USA_R50_SW USA_R50_NW USA_R64_NE USA_R64_SE USA_R64_SW USA_R64_NW USA_POCI USA_ROCI USA_RMW USA_EYE TOKYO_LAT TOKYO_LON TOKYO_GRADE TOKYO_WIND TOKYO_PRES TOKYO_R50_DIR TOKYO_R50_LONG TOKYO_R50_SHORT TOKYO_R30_DIR TOKYO_R30_LONG TOKYO_R30_SHORT TOKYO_LAND CMA_LAT CMA_LON CMA_CAT CMA_WIND CMA_PRES HKO_LAT HKO_LON HKO_CAT HKO_WIND HKO_PRES NEWDELHI_LAT NEWDELHI_LON NEWDELHI_GRADE NEWDELHI_WIND NEWDELHI_PRES NEWDELHI_CI NEWDELHI_DP NEWDELHI_POCI REUNION_LAT REUNION_LON REUNION_TYPE REUNION_WIND REUNION_PRES REUNION_TNUM REUNION_CI REUNION_RMW REUNION_R34_NE REUNION_R34_SE REUNION_R34_SW REUNION_R34_NW REUNION_R50_NE REUNION_R50_SE REUNION_R50_SW REUNION_R50_NW REUNION_R64_NE REUNION_R64_SE REUNION_R64_SW REUNION_R64_NW BOM_LAT BOM_LON BOM_TYPE BOM_WIND BOM_PRES BOM_TNUM BOM_CI BOM_RMW BOM_R34_NE BOM_R34_SE BOM_R34_SW BOM_R34_NW BOM_R50_NE BOM_R50_SE BOM_R50_SW BOM_R50_NW BOM_R64_NE BOM_R64_SE BOM_R64_SW BOM_R64_NW BOM_ROCI BOM_POCI BOM_EYE BOM_POS_METHOD BOM_PRES_METHOD NADI_LAT NADI_LON NADI_CAT NADI_WIND NADI_PRES WELLINGTON_LAT WELLINGTON_LON WELLINGTON_WIND WELLINGTON_PRES DS824_LAT DS824_LON DS824_STAGE DS824_WIND DS824_PRES TD9636_LAT TD9636_LON TD9636_STAGE TD9636_WIND TD9636_PRES TD9635_LAT TD9635_LON TD9635_WIND TD9635_PRES TD9635_ROCI NEUMANN_LAT NEUMANN_LON NEUMANN_CLASS NEUMANN_WIND NEUMANN_PRES MLC_LAT MLC_LON MLC_CLASS MLC_WIND MLC_PRES USA_GUST BOM_GUST BOM_GUST_PER REUNION_GUST REUNION_GUST_PER USA_SEAHGT USA_SEARAD_NE USA_SEARAD_SE USA_SEARAD_SW USA_SEARAD_NW STORM_SPEED STORM_DIR
1939293N11150 1939 73 WP MM NOT_NAMED 1939-10-20 10:00:00 NR 10.5000 149.500 main 1430 1429 __________O___ -1 10.5000 149.500 7 3 288
1939293N11150 1939 73 WP MM NOT_NAMED 1939-10-20 12:00:00 NR 10.5347 149.396 main 1429 1429 __________P___ -1 10.5347 149.396 7 4 290
1939293N11150 1939 73 WP MM NOT_NAMED 1939-10-20 15:00:00 NR 10.6113 149.185 main 1436 1435 __________P___ -1 10.6113 149.185 7 6 291
1939293N11150 1939 73 WP MM NOT_NAMED 1939-10-20 18:00:00 NR 10.7510 148.834 main 1453 1451 __________P___ -1 10.7510 148.834 7 10 293
1939293N11150 1939 73 WP MM NOT_NAMED 1939-10-20 21:00:00 NR 10.9912 148.257 main 1471 1469 __________P___ -1 10.9912 148.257 7 13 293
1939293N11150 1939 73 WP MM NOT_NAMED 1939-10-20 22:00:00 NR 11.1000 148.000 main 1480 1480 __________O___ -1 11.1000 148.000 7 19 294
1939293N11150 1939 73 WP MM NOT_NAMED 1939-10-21 00:00:00 NR 11.3662 147.381 main 1512 1512 __________P___ -1 11.3662 147.381 7 23 295
1939293N11150 1939 73 WP MM NOT_NAMED 1939-10-21 03:00:00 NR 11.8834 146.267 main 1568 1569 __________P___ -1 11.8834 146.267 7 26 297
1939293N11150 1939 73 WP MM NOT_NAMED 1939-10-21 06:00:00 NR 12.5344 145.067 main 1644 1656 __________P___ -1 12.5344 145.067 7 27 302
1939293N11150 1939 73 WP MM NOT_NAMED 1939-10-21 09:00:00 NR 13.3129 143.935 main 1750 1761 __________P___ -1 13.3129 143.935 7 27 307
1939293N11150 1939 73 WP MM NOT_NAMED 1939-10-21 10:00:00 NR 13.6000 143.600 main 1789 1789 __________O___ -1 13.6000 143.600 7 26 317
1939293N11150 1939 73 WP MM NOT_NAMED 1939-10-21 12:00:00 NR 14.2513 143.020 main 1858 1846 __________P___ -1 14.2513 143.020 7 26 324
1939293N11150 1939 73 WP MM NOT_NAMED 1939-10-21 15:00:00 NR 15.3381 142.273 main 1847 1805 __________P___ -1 15.3381 142.273 7 26 330
1939293N11150 1939 73 WP MM NOT_NAMED 1939-10-21 18:00:00 NR 16.4563 141.690 main 1810 1792 __________P___ -1 16.4563 141.690 7 24 336
1939293N11150 1939 73 WP MM NOT_NAMED 1939-10-21 21:00:00 NR 17.4925 141.289 main 1798 1795 __________P___ -1 17.4925 141.289 7 21 341
1939293N11150 1939 73 WP MM NOT_NAMED 1939-10-21 22:00:00 NR 17.8000 141.200 main 1798 1758 __________O___ -1 17.8000 141.200 3 16 346
1939293N11150 1939 73 WP MM NOT_NAMED 1939-10-22 00:00:00 NR 18.2776 141.082 main 1758 1701 __________P___ -1 18.2776 141.082 3 13 353
1939293N11150 1939 73 WP MM NOT_NAMED 1939-10-22 03:00:00 NR 18.8749 141.071 main 1701 1652 __________P___ -1 18.8749 141.071 3 11 5
1939293N11150 1939 73 WP MM NOT_NAMED 1939-10-22 06:00:00 NR 19.3959 141.188 main 1652 1602 __________P___ -1 19.3959 141.188 3 11 14
1939293N11150 1939 73 WP MM NOT_NAMED 1939-10-22 09:00:00 NR 19.9147 141.350 main 1606 1585 __________P___ -1 19.9147 141.350 3 11 16
1939293N11150 1939 73 WP MM NOT_NAMED 1939-10-22 10:00:00 NR 20.1000 141.400 main 1585 1542 __________O___ -1 20.1000 141.400 4 13 7
1939293N11150 1939 73 WP MM NOT_NAMED 1939-10-22 12:00:00 NR 20.5408 141.438 main 1542 1473 __________P___ -1 20.5408 141.438 4 14 5
1939293N11150 1939 73 WP MM NOT_NAMED 1939-10-22 15:00:00 NR 21.2335 141.496 main 1473 1400 __________P___ -1 21.2335 141.496 4 14 4
1939293N11150 1939 73 WP MM NOT_NAMED 1939-10-22 18:00:00 NR 21.9475 141.549 main 1400 1322 __________P___ -1 21.9475 141.549 4 14 4
1939293N11150 1939 73 WP MM NOT_NAMED 1939-10-22 21:00:00 NR 22.6639 141.590 main 1322 1301 __________P___ -1 22.6639 141.590 4 14 3
1939293N11150 1939 73 WP MM NOT_NAMED 1939-10-22 22:00:00 NR 22.9000 141.600 main 1301 1251 __________O___ -1 22.9000 141.600 4 14 2
1939293N11150 1939 73 WP MM NOT_NAMED 1939-10-23 00:00:00 NR 23.3556 141.592 main 1251 1191 __________P___ -1 23.3556 141.592 4 14 358
1939293N11150 1939 73 WP MM NOT_NAMED 1939-10-23 03:00:00 NR 24.0328 141.565 main 1191 1117 __________P___ -1 24.0328 141.565 4 14 358
1939293N11150 1939 73 WP MM NOT_NAMED 1939-10-23 06:00:00 NR 24.7052 141.550 main 1121 1054 __________P___ -1 24.7052 141.550 4 14 1
1939293N11150 1939 73 WP MM NOT_NAMED 1939-10-23 09:00:00 NR 25.3762 141.576 main 1054 1034 __________P___ -1 25.3762 141.576 4 14 2
1939293N11150 1939 73 WP MM NOT_NAMED 1939-10-23 10:00:00 NR 25.6000 141.600 main 1034 998 __________O___ -1 25.6000 141.600 4 14 8
1939293N11150 1939 73 WP MM NOT_NAMED 1939-10-23 12:00:00 NR 26.0485 141.674 main 998 926 __________P___ -1 26.0485 141.674 4 14 11
1939293N11150 1939 73 WP MM NOT_NAMED 1939-10-23 15:00:00 NR 26.7229 141.842 main 926 858 __________P___ -1 26.7229 141.842 4 14 14
1939293N11150 1939 73 WP MM NOT_NAMED 1939-10-23 18:00:00 NR 27.3986 142.062 main 862 791 __________P___ -1 27.3986 142.062 4 14 17
1939293N11150 1939 73 WP MM NOT_NAMED 1939-10-23 21:00:00 NR 28.0747 142.313 main 791 773 __________P___ -1 28.0747 142.313 4 14 18
1939293N11150 1939 73 WP MM NOT_NAMED 1939-10-23 22:00:00 NR 28.3000 142.400 main 773 __________O___ -1 28.3000 142.400 4 14 18

デジタル台風データ・検索

IBTrACS Databaseについて

本データベースは、米国NOAAが公開する1842年以降の世界の熱帯低気圧のベストトラックデータアーカイブInternational Best Track Archive for Climate Stewardship (IBTrACS)を、ウェブで閲覧しやすい形式に変換したものです。

最終更新日:2021-11-26